Date,TemperatureHighF,TemperatureAvgF,TemperatureLowF,DewpointHighF,DewpointAvgF,DewpointLowF,HumidityHigh,HumidityAvg,HumidityLow,PressureMaxIn,PressureMinIn,WindSpeedMaxMPH,WindSpeedAvgMPH,GustSpeedMaxMPH,PrecipitationSumIn
2013-1-1,67.8,56.1,46.4,67.2,53.5,42.7,98,91,84,30.15,29.82,20,8,26,0.09
2013-1-2,46.4,42.3,40.6,42.7,38.7,37.6,91,87,82,30.24,30.12,17,7,20,0.09
2013-1-3,49.0,44.8,40.5,39.2,37.1,35.2,84,75,62,30.35,30.22,13,7,17,0.01
2013-1-4,49.3,47.3,43.8,41.2,39.6,37.9,82,75,70,30.41,30.30,13,5,18,0.00
2013-1-5,47.8,46.0,43.1,46.2,43.2,38.2,95,90,72,30.32,30.19,12,4,18,0.89
2013-1-6,58.2,47.9,40.5,49.2,43.3,39.4,97,85,65,30.33,30.21,14,6,16,0.00
2013-1-7,61.1,49.9,38.8,54.2,46.2,36.8,93,87,76,30.25,30.00,7,1,11,0.00
2013-1-8,67.8,59.9,51.6,67.2,58.7,48.5,98,96,89,29.99,29.78,7,2,13,0.20
2013-1-9,67.7,63.0,58.2,66.1,61.8,57.2,98,96,86,29.99,29.75,15,3,22,1.40
2013-1-10,66.4,57.6,50.2,58.5,52.0,47.7,98,83,56,30.10,29.94,12,2,17,0.01
2013-1-11,70.2,61.5,48.2,69.2,59.5,46.8,98,93,86,30.00,29.79,12,3,15,0.02
2013-1-12,72.3,70.6,66.6,70.8,69.5,64.8,98,96,92,29.82,29.61,24,10,27,0.01
2013-1-13,70.5,49.1,43.2,69.6,44.1,38.5,97,83,70,30.07,29.72,22,11,27,0.15
2013-1-14,46.6,43.4,38.3,42.4,39.3,35.9,94,86,73,30.15,30.01,17,8,20,0.00
2013-1-15,44.9,41.1,39.1,41.9,39.1,36.4,96,92,88,30.12,29.98,17,8,23,0.06
2013-1-16,53.7,43.8,36.0,37.8,31.6,26.3,90,64,36,30.32,30.13,20,7,21,0.00
2013-1-17,63.0,49.0,37.0,45.7,38.0,29.4,89,68,44,30.41,30.24,11,2,14,0.00
2013-1-18,64.2,50.3,39.1,46.7,41.6,35.7,92,74,42,30.48,30.30,9,2,14,0.00
2013-1-19,67.4,54.5,43.2,55.8,48.6,40.8,94,82,61,30.30,30.13,14,3,15,0.00
2013-1-20,71.1,56.4,43.7,58.4,50.9,42.6,97,84,52,30.24,30.07,8,1,13,0.01
2013-1-21,70.8,57.6,47.7,60.4,52.8,46.8,98,85,60,30.20,30.07,6,0,6,0.01
2013-1-22,71.9,57.9,47.8,58.5,51.8,46.7,96,83,52,30.29,30.14,12,2,16,0.01
2013-1-23,74.5,60.5,49.1,64.8,56.9,48.3,98,89,66,30.31,30.19,12,3,18,0.01
2013-1-24,77.3,64.1,55.9,66.4,60.7,55.1,98,90,65,30.27,30.11,16,4,19,0.02
2013-1-25,77.0,66.8,60.2,67.2,63.4,59.3,98,90,68,30.16,30.03,20,6,23,0.00
2013-1-26,76.3,66.4,60.9,68.2,62.6,59.3,98,88,66,30.14,30.04,17,4,23,0.01
2013-1-27,75.6,68.1,60.5,70.5,65.6,59.4,98,92,81,30.07,29.97,21,7,24,0.01
2013-1-28,77.5,71.6,68.9,69.9,68.6,66.3,95,91,77,30.05,29.89,23,11,28,0.00
2013-1-29,76.7,71.5,61.1,70.9,68.1,52.8,95,89,73,29.90,29.55,32,15,38,0.02
2013-1-30,63.3,57.5,44.4,54.0,33.2,25.6,77,41,24,30.22,29.73,30,9,35,0.00
2013-1-31,67.0,52.7,40.4,45.2,36.3,29.0,81,56,27,30.30,30.16,14,3,16,0.00
2013-2-1,70.3,57.7,47.8,55.0,46.5,42.1,92,69,38,30.32,30.18,18,3,19,0.00
2013-2-2,76.2,60.2,48.3,62.3,53.7,45.5,96,81,45,30.22,30.12,9,1,12,0.00
2013-2-3,72.6,60.6,51.9,56.8,50.9,43.8,97,73,41,30.28,29.99,13,2,16,0.00
2013-2-4,76.0,64.7,54.5,66.7,60.8,52.0,97,88,70,29.98,29.76,19,4,21,0.00
2013-2-5,76.6,65.6,59.1,68.0,63.0,58.2,98,92,66,29.93,29.81,9,1,12,0.01
2013-2-6,67.3,64.2,57.5,66.4,62.5,56.1,98,94,88,29.96,29.78,17,3,19,1.36
2013-2-7,70.8,61.7,54.7,65.7,60.2,53.9,98,95,83,29.96,29.84,8,0,8,0.01
2013-2-8,68.6,60.2,54.1,62.6,54.6,50.6,98,83,64,30.16,29.96,14,4,16,0.00
2013-2-9,70.0,63.0,51.9,68.8,60.8,50.8,98,93,83,30.06,29.79,19,6,24,0.01
2013-2-10,71.7,66.3,61.6,70.1,60.7,51.3,97,83,60,29.92,29.72,19,7,28,0.00
2013-2-11,62.2,58.0,55.0,56.2,52.7,46.5,96,83,63,29.96,29.88,15,6,19,0.01
2013-2-12,64.5,59.0,56.1,60.8,57.4,55.0,98,94,85,29.95,29.76,12,3,15,0.01
2013-2-13,60.5,52.8,45.8,55.4,45.1,40.4,92,76,54,30.10,29.95,16,5,21,0.03
2013-2-14,67.7,52.4,40.1,49.4,41.6,29.8,93,71,26,30.12,30.00,7,0,11,0.00
2013-2-15,66.7,54.9,44.2,53.9,45.3,40.7,94,72,46,30.28,30.03,21,4,27,0.00
2013-2-16,63.3,51.5,42.2,42.3,36.5,29.4,85,59,33,30.42,30.22,16,4,20,0.00
2013-2-17,69.1,58.0,41.9,57.1,49.1,39.2,93,74,46,30.22,29.98,20,6,25,0.00
2013-2-18,73.9,67.4,59.1,67.2,62.6,52.2,95,85,75,30.02,29.82,24,10,33,0.13
2013-2-19,70.1,59.0,49.6,51.2,43.2,31.6,78,58,25,30.19,30.02,14,4,16,0.01
2013-2-20,71.1,62.8,50.1,67.2,58.1,45.7,93,85,75,30.03,29.68,17,5,25,0.01
2013-2-21,76.3,68.5,56.7,71.5,63.2,50.8,96,84,58,29.79,29.58,24,7,27,0.07
2013-2-22,63.4,58.5,55.6,52.9,49.1,45.2,83,71,62,29.92,29.77,18,5,19,0.00
2013-2-23,66.1,56.0,47.4,52.8,46.5,40.5,87,71,56,29.97,29.84,13,3,18,0.00
2013-2-24,71.8,56.2,44.3,61.9,52.7,43.0,97,89,70,29.87,29.58,11,2,18,0.00
2013-2-25,71.6,63.2,50.5,66.1,46.6,26.9,98,61,19,29.79,29.50,33,11,41,0.02
2013-2-26,65.0,54.0,42.8,48.1,37.9,34.6,83,56,34,29.91,29.78,16,5,19,0.00
2013-2-27,70.9,56.4,47.7,55.2,44.1,35.4,93,66,40,30.15,29.83,15,4,21,0.00
2013-2-28,57.9,50.4,44.2,38.7,34.8,31.4,71,56,40,30.24,30.13,15,5,19,0.00
2013-3-1,68.4,54.6,41.3,45.8,37.4,30.6,81,55,25,30.24,30.07,9,2,14,0.00
2013-3-2,59.2,49.9,41.3,45.0,32.5,23.0,83,53,30,30.36,30.20,19,6,24,0.00
2013-3-3,68.7,54.4,38.1,53.5,40.1,25.0,84,60,41,30.23,29.96,18,6,23,0.00
2013-3-4,75.1,66.2,57.2,62.8,59.1,53.0,89,79,61,29.95,29.73,35,14,36,0.00
2013-3-5,67.2,60.9,48.5,63.2,45.1,27.5,94,59,31,30.27,29.77,26,10,33,0.00
2013-3-6,66.8,51.3,37.8,44.3,34.1,27.2,80,54,23,30.39,30.18,10,2,14,0.00
2013-3-7,70.8,57.3,42.7,57.6,49.3,38.8,91,76,60,30.19,30.10,16,3,19,0.00
2013-3-8,72.9,63.9,53.8,64.2,58.9,50.3,93,84,72,30.10,29.99,15,3,21,0.00
2013-3-9,76.7,68.9,65.2,68.2,64.9,61.6,93,87,72,29.99,29.65,30,12,35,0.00
2013-3-10,70.5,64.3,53.5,66.7,55.5,42.8,96,75,44,30.02,29.64,20,8,27,0.24
2013-3-11,65.8,55.1,46.0,43.5,35.5,26.9,78,51,24,30.10,29.95,17,5,23,0.00
2013-3-12,73.7,56.5,39.9,52.4,40.4,30.1,83,57,30,30.18,30.02,12,1,13,0.00
2013-3-13,75.5,58.3,45.9,50.4,44.9,39.5,93,66,30,30.35,30.17,15,2,18,0.00
2013-3-14,73.5,59.4,45.4,57.7,50.4,43.4,95,74,48,30.35,30.23,14,4,20,0.00
2013-3-15,75.5,62.2,49.6,63.0,55.8,48.2,97,81,55,30.24,30.02,19,5,22,0.00
2013-3-16,77.8,67.0,56.6,65.4,61.0,54.9,96,82,59,30.01,29.80,23,9,27,0.01
2013-3-17,80.2,70.4,62.8,69.4,65.9,60.7,97,86,69,29.82,29.65,20,8,24,0.00
2013-3-18,84.4,73.3,66.5,71.4,67.5,60.1,96,83,61,29.85,29.68,12,4,16,0.00
2013-3-19,80.2,69.1,56.4,69.2,61.9,52.2,89,78,66,29.93,29.80,16,4,20,0.00
2013-3-20,75.4,65.6,56.8,64.3,54.9,44.5,93,71,36,30.14,29.87,18,4,23,0.00
2013-3-21,73.7,64.4,53.1,64.9,58.0,49.3,91,81,60,30.00,29.64,22,7,28,0.00
2013-3-22,77.5,71.5,67.9,71.9,68.8,64.5,95,91,79,29.68,29.60,14,6,18,0.00
2013-3-23,75.5,67.7,59.4,69.9,65.0,58.3,97,91,78,29.68,29.55,10,2,14,0.00
2013-3-24,63.8,58.0,48.1,62.9,43.3,30.7,97,62,33,30.09,29.60,33,9,33,0.01
2013-3-25,62.3,50.7,40.1,34.3,27.2,18.0,72,44,20,30.31,30.09,15,4,17,0.00
2013-3-26,64.7,52.1,38.2,37.3,28.0,22.0,68,43,21,30.43,30.27,10,1,14,0.00
2013-3-27,69.3,57.5,43.6,54.8,44.7,35.5,78,64,35,30.31,30.16,18,5,24,0.00
2013-3-28,72.8,66.3,60.1,62.4,59.0,54.8,90,78,66,30.18,30.11,16,5,22,0.00
2013-3-29,77.9,66.6,54.3,64.4,59.4,52.7,96,79,53,30.15,30.05,18,5,23,0.00
2013-3-30,79.5,69.2,58.0,69.0,64.3,56.6,97,85,64,30.08,29.91,17,5,21,0.00
2013-3-31,80.8,72.2,65.7,70.2,67.6,64.5,97,86,67,29.93,29.79,14,7,22,0.00
2013-4-1,84.8,71.9,63.4,70.6,65.4,61.5,94,81,53,29.99,29.87,19,3,22,0.00
2013-4-2,80.8,70.3,62.7,72.0,66.5,60.3,95,88,73,29.94,29.75,12,2,16,0.01
2013-4-3,67.5,61.7,54.5,63.4,58.7,51.9,94,90,83,30.05,29.68,19,7,23,0.21
2013-4-4,60.8,54.4,48.2,52.2,48.6,43.9,93,81,64,30.14,30.01,16,6,20,0.01
2013-4-5,71.8,56.2,43.8,54.5,48.1,41.5,92,76,48,30.22,30.05,11,2,15,0.00
2013-4-6,75.5,63.8,51.2,63.8,57.7,49.4,97,82,62,30.07,29.89,21,5,27,0.00
2013-4-7,78.7,69.6,62.6,66.4,63.2,60.2,94,81,62,29.92,29.80,19,7,26,0.00
2013-4-8,79.4,72.5,67.2,70.1,68.0,65.1,96,86,69,29.81,29.68,24,9,30,0.00
2013-4-9,81.8,74.3,67.8,73.2,69.9,65.7,94,87,73,29.71,29.60,29,12,32,0.00
2013-4-10,78.0,64.7,51.1,73.2,61.6,46.7,95,90,78,29.80,29.61,22,10,26,0.01
2013-4-11,71.4,57.4,45.2,49.0,45.3,41.5,90,67,39,29.88,29.74,23,5,28,0.20
2013-4-12,81.0,62.7,49.5,61.7,51.8,44.9,89,70,37,29.95,29.82,16,2,21,0.00
2013-4-13,77.8,64.9,53.3,62.8,57.1,51.6,96,78,45,29.91,29.75,13,2,20,0.00
2013-4-14,84.1,69.1,56.1,73.3,64.7,54.2,97,87,68,29.77,29.62,17,4,20,0.00
2013-4-15,83.3,74.0,66.6,72.6,69.5,65.4,97,87,66,29.79,29.68,17,6,22,0.01
2013-4-16,83.0,75.3,68.1,73.0,70.9,66.3,96,87,70,29.87,29.77,17,4,21,0.00
2013-4-17,78.7,75.4,72.8,74.3,72.6,71.3,96,91,83,29.87,29.66,22,9,27,0.00
2013-4-18,75.9,65.6,55.1,73.6,61.9,46.2,96,88,70,29.99,29.63,21,10,29,0.13
2013-4-19,69.6,57.5,49.6,45.9,38.5,30.6,71,52,27,30.22,30.00,21,7,22,0.00
2013-4-20,73.1,57.4,40.5,50.5,42.2,32.9,80,59,35,30.18,30.01,16,2,25,0.00
2013-4-21,79.0,64.2,51.3,63.4,55.7,46.9,90,75,51,30.08,29.98,11,2,16,0.01
2013-4-22,82.3,67.1,53.5,66.0,60.3,52.1,96,81,53,30.06,29.89,15,2,16,0.00
2013-4-23,80.8,72.1,63.1,69.7,66.9,60.0,97,84,64,29.93,29.83,18,5,24,0.00
2013-4-24,66.1,57.1,48.6,59.0,49.6,43.2,89,77,54,30.15,29.94,22,7,27,0.30
2013-4-25,66.1,63.2,59.2,62.0,53.1,49.4,90,70,59,30.25,30.12,9,1,10,0.00
2013-4-26,82.6,73.3,65.1,72.7,68.6,62.4,95,86,68,30.16,30.02,21,7,25,0.00
2013-4-27,82.6,74.1,69.2,72.2,70.0,66.8,96,88,69,30.07,29.90,17,6,20,0.02
2013-4-28,78.3,70.5,62.4,70.7,66.2,60.3,96,87,73,30.03,29.84,11,1,21,1.04
2013-4-29,80.6,69.9,64.7,72.8,67.4,62.6,97,92,68,29.90,29.77,8,1,19,1.06
2013-4-30,82.1,72.3,64.8,72.2,67.9,63.9,97,87,69,29.79,29.69,13,2,15,0.00
2013-5-1,84.3,74.8,67.8,73.7,69.7,66.6,97,85,58,29.86,29.73,11,1,16,0.00
2013-5-2,76.6,65.9,51.5,70.0,59.3,44.3,98,80,67,30.20,29.79,23,8,30,0.00
2013-5-3,69.2,58.0,49.4,45.4,39.1,33.0,79,52,27,30.21,30.03,21,9,29,0.00
2013-5-4,77.7,63.9,45.5,57.9,48.2,37.1,86,59,35,30.06,29.84,12,3,16,0.00
2013-5-5,76.9,65.8,56.7,58.1,51.8,45.0,89,63,39,30.05,29.91,11,3,15,0.00
2013-5-6,79.3,65.8,51.9,60.2,53.7,47.6,87,67,42,30.08,29.92,4,0,10,0.00
2013-5-7,81.1,69.1,56.2,65.5,60.0,54.2,95,75,45,30.03,29.93,12,2,15,0.00
2013-5-8,81.2,71.3,60.4,69.6,64.8,58.5,97,81,57,30.00,29.91,17,5,21,0.00
2013-5-9,79.8,75.2,71.9,74.5,71.9,68.8,94,90,82,29.94,29.79,19,7,23,0.00
2013-5-10,82.7,74.8,65.4,73.3,70.9,64.4,98,88,68,29.96,29.77,22,2,29,0.64
2013-5-11,85.2,75.0,65.9,71.5,66.4,59.6,95,76,56,30.05,29.91,14,4,17,0.02
2013-5-12,81.0,72.0,64.6,66.5,60.5,56.7,81,68,48,30.13,29.98,8,1,14,0.00
2013-5-13,82.7,70.9,59.9,69.5,62.4,56.6,93,76,47,30.22,30.13,13,2,15,0.00
2013-5-14,82.1,71.6,61.2,72.2,66.9,59.8,97,86,68,30.19,30.05,18,5,20,0.00
2013-5-15,79.6,73.8,70.7,73.6,70.3,67.7,96,89,81,30.08,29.87,22,8,28,0.03
2013-5-16,83.3,76.7,72.0,74.8,72.1,69.6,93,86,73,29.88,29.74,22,9,25,0.00
2013-5-17,84.9,77.9,71.4,77.3,73.4,69.9,96,87,74,29.90,29.79,17,7,22,0.00
2013-5-18,88.5,79.9,75.6,75.9,73.4,70.8,93,82,58,29.90,29.83,19,8,21,0.00
2013-5-19,86.8,79.7,75.6,75.9,73.6,72.0,92,82,63,29.86,29.76,21,10,24,0.00
2013-5-20,86.6,80.4,76.6,77.0,74.2,72.2,88,82,68,29.84,29.71,18,10,23,0.00
2013-5-21,86.6,79.2,75.5,77.2,74.6,73.3,95,86,70,29.81,29.69,17,7,23,0.00
2013-5-22,89.7,79.6,72.9,79.6,75.3,71.7,98,87,66,29.87,29.76,12,3,15,0.05
2013-5-23,87.9,79.2,72.1,77.8,74.3,70.9,98,86,68,29.99,29.85,17,3,19,0.01
2013-5-24,87.7,79.2,72.5,77.3,74.6,71.6,98,86,69,30.07,29.95,15,4,21,0.00
2013-5-25,83.2,77.2,74.0,75.3,73.6,71.6,96,89,73,30.10,29.99,12,2,16,0.22
2013-5-26,87.1,78.3,71.0,76.3,72.4,69.8,97,83,62,30.05,29.94,17,4,20,0.00
2013-5-27,87.0,78.5,70.9,76.9,72.8,69.4,96,83,66,29.99,29.85,22,7,27,0.00
2013-5-28,87.0,80.0,74.6,77.3,73.4,70.5,88,81,67,29.91,29.80,22,10,29,0.00
2013-5-29,85.9,80.1,77.1,77.2,74.7,72.8,91,84,72,29.84,29.73,29,10,31,0.00
2013-5-30,90.1,81.9,77.2,78.1,75.8,73.9,94,82,65,29.82,29.75,22,9,26,0.01
2013-5-31,91.1,82.3,76.0,79.1,76.5,74.5,96,83,65,29.86,29.77,19,8,23,0.00
2013-6-1,91.4,83.0,75.7,78.3,76.2,73.5,93,81,61,29.86,29.77,17,7,21,0.00
2013-6-2,87.3,76.8,70.1,78.2,72.8,68.6,97,88,62,29.99,29.82,20,2,30,0.72
2013-6-3,91.5,79.1,70.7,74.5,71.1,67.5,97,79,46,29.92,29.79,12,2,15,0.01
2013-6-4,91.0,78.9,68.5,74.5,70.4,67.0,97,77,48,29.87,29.77,11,2,15,0.00
2013-6-5,92.4,80.5,70.1,78.5,74.3,68.9,98,83,55,29.84,29.74,13,2,15,0.01
2013-6-6,94.5,82.0,73.0,79.8,75.3,70.9,98,82,52,29.86,29.69,11,2,15,0.06
2013-6-7,89.1,78.0,71.0,73.3,70.4,68.6,95,79,53,29.90,29.80,13,2,17,0.02
2013-6-8,89.2,79.1,72.1,76.9,73.1,66.2,95,83,58,29.88,29.77,14,3,20,0.00
2013-6-9,84.2,76.4,72.0,80.2,73.5,66.5,96,91,68,29.90,29.80,19,1,27,0.10
2013-6-10,91.9,79.6,69.9,79.7,74.3,69.0,98,85,60,29.94,29.88,12,2,18,0.01
2013-6-11,92.1,81.5,73.0,80.7,75.8,71.9,98,84,62,29.99,29.92,15,4,19,0.01
2013-6-12,92.7,81.7,74.9,80.1,75.9,71.5,97,84,53,30.01,29.93,17,3,19,0.00
2013-6-13,91.1,81.8,75.8,80.5,76.8,74.2,97,86,65,30.01,29.88,10,2,13,0.00
2013-6-14,94.8,82.6,74.9,80.3,75.6,72.7,98,81,54,29.94,29.85,10,3,15,0.00
2013-6-15,93.8,83.1,75.8,78.9,75.4,71.7,96,79,50,29.95,29.85,16,4,18,0.00
2013-6-16,94.2,83.5,75.2,79.0,76.0,73.4,95,80,56,29.97,29.88,16,5,22,0.00
2013-6-17,95.2,84.0,75.6,79.4,76.0,71.9,95,79,49,29.96,29.83,15,6,23,0.00
2013-6-18,93.6,83.3,75.8,79.1,75.7,72.7,95,79,52,29.94,29.83,13,4,17,0.09
2013-6-19,95.1,84.3,75.9,78.0,75.5,70.6,94,77,47,29.94,29.88,18,6,20,0.00
2013-6-20,94.1,83.8,74.7,78.8,75.1,71.5,96,77,50,30.03,29.92,15,5,20,0.00
2013-6-21,94.8,84.2,74.8,78.6,74.5,67.5,95,75,42,30.04,29.96,16,5,20,0.00
2013-6-22,95.4,84.1,75.7,78.9,75.8,73.8,96,78,51,30.00,29.90,19,6,22,0.00
2013-6-23,93.6,83.4,75.2,78.2,74.6,69.1,95,77,46,29.95,29.88,16,6,21,0.00
2013-6-24,94.3,84.5,75.5,77.7,75.4,72.4,94,76,53,30.01,29.91,20,8,25,0.00
2013-6-25,94.6,85.5,78.9,78.4,75.8,73.0,92,74,51,29.99,29.89,20,8,25,0.00
2013-6-26,90.1,79.7,77.5,77.0,74.0,74.1,91,81,64,29.92,29.88,14,5,16,0.00
2013-6-27,97.0,84.6,75.7,78.1,74.5,69.3,94,74,43,29.98,29.88,14,3,17,0.00
2013-6-28,100.9,85.8,74.8,78.4,74.3,66.4,96,72,34,29.95,29.77,18,4,18,0.00
2013-6-29,107.2,89.5,79.3,78.6,74.7,65.8,90,66,27,29.83,29.66,12,5,13,0.00
2013-6-30,98.4,87.1,78.6,76.5,71.6,62.2,88,63,31,29.84,29.72,13,3,17,0.00
2013-7-1,97.3,85.4,72.7,73.4,60.5,54.7,76,46,25,29.92,29.79,11,4,16,0.00
2013-7-2,97.2,83.5,72.9,69.4,62.8,55.6,76,53,27,29.97,29.86,12,3,16,0.00
2013-7-3,96.1,81.8,69.8,73.4,68.0,61.0,91,67,33,29.97,29.86,15,3,18,0.00
2013-7-4,95.2,81.9,70.0,73.8,70.2,64.4,92,70,38,29.93,29.84,13,3,19,0.00
2013-7-5,98.1,82.8,69.4,75.2,70.4,64.6,91,69,35,29.92,29.81,14,2,19,0.00
2013-7-6,97.0,83.6,72.1,76.3,72.8,67.8,94,73,39,29.87,29.78,16,3,22,0.00
2013-7-7,94.8,82.0,75.4,79.0,75.4,72.9,97,82,52,29.94,29.83,20,4,23,0.30
2013-7-8,92.7,80.7,72.9,79.3,75.5,71.2,97,85,54,30.08,29.94,14,4,19,1.83
2013-7-9,93.9,83.9,75.7,80.6,76.8,74.5,97,81,56,30.09,29.98,15,4,19,0.00
2013-7-10,91.9,82.9,76.5,79.9,76.1,73.8,96,81,59,30.04,29.91,13,3,15,0.00
2013-7-11,92.8,83.3,75.6,78.8,75.8,73.0,96,80,55,29.96,29.86,15,3,16,0.00
2013-7-12,94.6,83.5,76.8,78.1,75.1,70.0,94,78,45,29.92,29.84,13,2,15,0.00
2013-7-13,96.4,84.1,74.7,77.9,73.7,70.2,96,73,45,29.93,29.80,15,2,16,0.00
2013-7-14,91.9,83.7,77.7,78.4,75.4,72.1,90,77,55,29.89,29.79,13,4,17,0.00
2013-7-15,91.8,81.6,73.9,79.3,74.0,68.5,93,79,48,29.96,29.83,14,3,19,0.04
2013-7-16,90.7,79.3,74.7,77.5,74.3,72.3,96,86,57,30.04,29.93,13,1,15,0.53
2013-7-17,87.4,77.0,73.8,78.6,74.6,71.2,97,93,70,30.11,30.02,5,0,13,0.77
2013-7-18,90.9,79.9,72.7,79.5,75.5,69.4,97,87,61,30.08,29.94,10,1,16,1.18
2013-7-19,91.8,80.9,73.0,79.2,74.9,71.8,97,83,57,30.00,29.86,11,1,14,0.00
2013-7-20,91.4,81.9,74.1,79.2,75.2,72.0,97,82,55,29.94,29.81,15,2,18,0.00
2013-7-21,88.2,80.5,75.4,80.4,77.0,73.2,96,89,72,29.94,29.86,20,4,20,0.51
2013-7-22,90.7,83.7,78.1,81.3,78.6,76.5,96,85,68,29.97,29.91,17,6,19,0.00
2013-7-23,90.5,82.8,77.5,78.6,76.9,75.4,94,83,63,29.98,29.88,17,7,19,0.00
2013-7-24,92.5,82.6,75.4,79.9,76.6,73.8,96,83,60,29.96,29.85,14,4,16,0.00
2013-7-25,93.7,82.6,73.9,81.5,76.6,72.5,97,83,54,29.99,29.91,11,3,15,0.00
2013-7-26,90.9,83.4,76.8,80.8,77.7,75.2,97,84,68,30.00,29.88,17,6,17,0.00
2013-7-27,93.9,84.1,79.0,81.3,78.3,76.1,94,84,60,29.91,29.81,16,5,21,0.07
2013-7-28,91.0,83.8,77.7,80.6,77.4,74.8,96,82,60,29.91,29.85,16,6,18,0.00
2013-7-29,91.8,83.7,77.2,79.0,76.7,74.3,95,80,58,30.02,29.91,18,7,21,0.00
2013-7-30,92.7,82.8,75.6,79.3,76.3,73.4,95,82,55,30.06,29.98,15,6,18,0.00
2013-7-31,95.0,83.0,73.8,79.5,75.5,72.3,97,80,51,30.05,29.91,13,2,15,0.00
2013-8-1,97.0,84.6,76.6,80.1,76.3,72.7,96,78,48,30.00,29.86,10,2,14,0.00
2013-8-2,94.5,83.1,74.8,80.6,75.9,72.0,97,81,53,29.95,29.87,13,2,16,0.00
2013-8-3,95.4,83.6,73.8,80.2,76.4,72.1,96,80,58,29.98,29.91,16,4,18,0.00
2013-8-4,95.0,84.5,77.2,80.8,77.2,74.3,96,80,58,30.01,29.92,16,5,20,0.00
2013-8-5,95.4,84.5,75.7,80.2,76.4,73.8,96,79,52,30.00,29.89,17,6,20,0.00
2013-8-6,94.8,85.3,77.7,79.7,77.3,73.6,94,79,52,29.94,29.83,19,8,22,0.00
2013-8-7,95.7,85.4,78.3,79.3,77.1,73.2,94,78,51,29.91,29.81,17,8,21,0.00
2013-8-8,97.5,85.0,75.9,78.8,76.6,70.9,93,78,44,29.89,29.80,18,7,21,0.00
2013-8-9,99.3,84.3,72.9,80.1,75.0,71.6,98,77,44,29.93,29.81,13,2,15,0.00
2013-8-10,93.7,83.4,75.6,81.9,76.8,72.5,97,82,56,29.97,29.89,18,3,26,0.00
2013-8-11,92.8,81.8,75.9,81.1,76.2,74.1,97,84,56,30.00,29.95,13,1,18,0.03
2013-8-12,96.4,84.0,75.2,79.0,76.1,73.6,97,79,53,30.03,29.92,17,4,20,0.00
2013-8-13,97.2,85.6,77.4,80.1,76.8,74.7,96,77,49,29.99,29.86,16,4,18,0.00
2013-8-14,100.9,86.9,79.2,79.9,75.9,66.4,94,73,34,29.94,29.81,19,5,21,0.00
2013-8-15,97.9,84.7,77.7,78.1,74.9,68.4,93,75,40,29.96,29.85,16,2,19,0.00
2013-8-16,98.6,83.1,73.0,79.0,74.2,70.5,95,77,42,29.95,29.80,16,3,21,0.73
2013-8-17,94.5,80.8,71.1,76.3,72.3,65.5,96,78,41,29.96,29.85,13,2,16,0.01
2013-8-18,94.8,82.3,73.6,77.0,72.1,63.7,95,74,37,29.97,29.91,14,2,17,0.00
2013-8-19,95.0,81.7,71.1,77.2,71.7,65.5,97,75,39,29.99,29.86,14,2,16,0.01
2013-8-20,80.4,76.4,72.9,77.0,74.2,71.1,97,93,86,30.00,29.89,12,0,12,0.52
2013-8-21,91.9,79.9,73.0,81.3,75.7,70.7,98,88,62,30.01,29.94,14,1,19,0.09
2013-8-22,92.5,82.0,74.5,80.8,76.7,73.6,98,85,64,30.01,29.88,11,1,13,0.00
2013-8-23,94.1,82.2,74.5,79.7,75.9,71.4,97,83,54,29.96,29.83,13,1,19,0.05
2013-8-24,95.7,83.7,75.7,79.9,75.6,70.5,97,79,47,29.96,29.87,9,2,15,0.00
2013-8-25,90.0,79.4,75.6,80.2,75.9,73.0,97,90,68,30.00,29.93,9,0,15,1.33
2013-8-26,81.3,76.4,73.6,77.9,75.1,72.1,98,96,86,30.03,29.97,10,1,18,0.34
2013-8-27,89.2,80.3,73.2,81.7,76.2,72.0,98,88,70,30.05,29.97,13,2,15,0.00
2013-8-28,92.7,81.6,73.2,79.9,75.4,72.3,98,83,57,30.05,29.95,11,1,15,0.01
2013-8-29,95.2,83.7,75.6,79.7,76.3,72.5,97,80,49,30.03,29.89,10,1,12,0.00
2013-8-30,93.9,83.7,77.5,80.1,76.8,75.2,96,81,57,29.98,29.85,17,2,17,0.00
2013-8-31,93.0,82.7,75.7,78.6,75.8,73.6,97,81,58,29.91,29.80,12,2,14,0.00
2013-9-1,93.0,82.6,74.5,79.2,76.0,72.9,96,82,55,29.88,29.78,21,2,21,0.00
2013-9-2,93.2,82.6,76.5,80.4,76.4,70.3,96,83,59,29.92,29.80,11,1,15,0.00
2013-9-3,94.8,83.9,74.1,79.7,76.1,71.8,97,79,50,29.96,29.83,11,1,14,0.00
2013-9-4,94.3,84.2,77.5,79.2,75.7,71.2,93,77,50,29.98,29.88,11,1,18,0.00
2013-9-5,91.8,81.1,75.4,79.5,75.8,73.2,96,85,61,30.03,29.94,10,1,12,0.14
2013-9-6,93.0,81.5,74.7,80.1,75.8,73.2,96,84,58,30.02,29.91,8,0,12,0.03
2013-9-7,91.4,79.5,74.8,79.0,74.8,73.0,97,86,61,29.96,29.88,11,0,13,0.01
2013-9-8,90.3,80.5,74.5,79.3,74.8,72.3,97,84,61,29.92,29.83,10,1,16,0.01
2013-9-9,91.0,78.6,72.9,79.2,74.3,71.6,97,87,60,29.92,29.85,19,1,23,0.11
2013-9-10,91.0,80.5,72.7,80.2,74.8,70.3,98,84,56,29.98,29.91,10,1,17,0.13
2013-9-11,92.1,80.9,73.2,79.2,74.7,72.1,97,82,61,30.01,29.93,15,1,17,0.01
2013-9-12,95.4,82.3,73.8,78.4,72.3,67.5,97,75,43,29.98,29.85,8,1,13,0.00
2013-9-13,96.1,81.8,72.3,77.4,71.4,66.0,95,74,42,29.89,29.76,9,1,15,0.00
2013-9-14,94.8,84.6,72.1,78.3,74.1,70.9,97,72,51,29.86,29.77,12,2,16,0.00
2013-9-15,93.9,82.7,74.8,78.6,74.7,72.3,95,79,52,29.92,29.83,11,1,16,0.00
2013-9-16,96.3,84.0,76.3,78.8,75.7,72.9,94,78,51,29.96,29.88,15,2,17,0.00
2013-9-17,93.6,83.1,76.3,79.5,76.2,74.3,96,81,58,29.98,29.88,14,2,18,0.00
2013-9-18,94.8,83.1,74.5,79.3,74.9,70.9,97,78,48,29.94,29.83,14,2,18,0.00
2013-9-19,93.6,82.8,75.4,81.1,76.4,73.4,95,82,62,29.89,29.78,16,3,21,0.07
2013-9-20,88.7,79.9,74.5,81.1,77.6,73.6,97,93,78,29.81,29.66,18,4,19,2.72
2013-9-21,81.9,75.3,71.8,74.3,71.5,68.9,98,89,69,29.78,29.70,16,5,20,0.45
2013-9-22,86.5,76.1,66.6,70.0,65.6,59.5,90,72,44,29.79,29.68,10,4,15,0.00
2013-9-23,87.4,76.5,67.8,75.6,70.3,65.1,92,82,65,29.76,29.68,15,3,15,0.22
2013-9-24,93.4,82.8,74.8,77.5,73.2,69.3,92,75,46,29.83,29.74,15,4,15,0.00
2013-9-25,94.5,80.8,70.9,77.9,71.0,56.1,98,76,29,29.84,29.74,7,1,9,0.00
2013-9-26,90.7,79.8,71.1,77.9,74.1,69.4,97,84,60,29.85,29.77,11,2,15,0.00
2013-9-27,90.0,81.7,75.4,80.6,77.6,74.3,98,88,71,29.88,29.80,18,4,22,0.01
2013-9-28,90.5,83.4,79.0,81.3,78.8,77.4,96,87,70,29.92,29.83,15,6,18,0.01
2013-9-29,86.4,80.4,76.5,80.1,76.7,74.3,97,89,70,29.95,29.85,7,1,9,0.02
2013-9-30,88.9,77.6,72.0,78.3,73.9,70.2,96,89,65,29.88,29.75,14,1,16,0.49
2013-10-1,85.5,77.7,74.8,81.1,75.7,73.6,98,94,83,29.88,29.78,13,1,16,0.43
2013-10-2,88.3,79.4,73.8,79.9,75.6,72.9,98,89,69,29.91,29.82,11,2,18,0.16
2013-10-3,88.3,80.1,74.5,78.6,74.9,71.2,98,85,58,29.90,29.81,11,2,14,0.01
2013-10-4,88.2,79.0,72.9,79.0,74.1,71.4,96,86,68,29.88,29.82,13,2,14,0.00
2013-10-5,91.6,80.1,69.8,79.3,72.6,59.7,98,80,52,29.92,29.80,16,1,20,0.01
2013-10-6,79.3,67.6,54.5,59.7,54.4,47.5,94,64,33,30.05,29.92,17,7,22,0.50
2013-10-7,81.9,70.0,59.2,55.6,50.0,42.8,78,52,26,30.09,29.99,12,3,14,0.00
2013-10-8,82.6,69.0,58.5,60.6,54.3,47.7,88,62,33,30.04,29.94,6,1,7,0.00
2013-10-9,84.0,71.1,59.4,68.5,62.6,56.8,94,76,52,30.01,29.91,7,1,13,0.00
2013-10-10,85.6,74.5,64.2,73.4,67.8,62.2,95,81,60,29.98,29.87,13,3,17,0.00
2013-10-11,86.2,77.7,69.6,78.3,73.6,67.6,96,88,74,29.90,29.82,16,4,17,0.00
2013-10-12,87.1,80.1,75.9,81.1,77.1,74.1,98,91,77,29.98,29.85,12,3,17,0.06
2013-10-13,78.4,75.5,73.0,77.9,74.7,72.3,99,97,94,30.08,29.97,8,1,11,1.80
2013-10-14,84.9,77.6,73.6,77.5,73.6,71.8,99,88,69,30.03,29.91,19,4,19,0.02
2013-10-15,86.2,77.3,71.2,76.5,72.8,70.3,98,87,67,29.93,29.83,14,3,14,0.00
2013-10-16,73.6,67.3,63.1,72.3,65.0,60.4,97,93,85,29.98,29.83,15,6,16,0.04
2013-10-17,77.7,67.7,60.6,62.1,58.8,55.0,92,74,56,30.04,29.91,13,5,15,0.00
2013-10-18,74.5,67.7,61.3,70.7,64.3,57.4,94,89,82,29.94,29.79,8,2,12,0.07
2013-10-19,69.8,64.0,57.4,64.9,55.6,46.8,96,76,48,30.08,29.88,18,8,22,0.02
2013-10-20,76.8,62.9,49.8,64.0,54.8,45.9,90,76,53,30.03,29.88,9,1,12,0.00
2013-10-21,77.5,69.7,61.9,72.9,66.9,59.2,97,91,80,29.94,29.84,8,1,9,0.04
2013-10-22,76.3,67.0,61.5,68.4,58.8,50.0,97,77,43,30.06,29.92,17,6,18,0.01
2013-10-23,81.5,67.0,53.4,59.2,53.0,46.9,90,65,32,30.13,30.03,5,0,7,0.00
2013-10-24,82.8,68.2,55.6,62.6,57.8,52.2,91,71,43,30.17,30.08,9,1,11,0.00
2013-10-25,82.2,68.3,57.7,66.9,62.1,56.3,96,82,54,30.27,30.16,10,2,14,0.00
2013-10-26,82.2,70.2,59.5,70.3,64.3,58.5,97,83,59,30.17,30.04,17,4,20,0.01
2013-10-27,81.3,70.7,63.3,70.5,66.1,61.9,97,86,65,30.06,29.94,8,1,10,0.03
2013-10-28,85.3,73.4,64.0,74.5,68.2,63.1,98,85,59,30.04,29.95,17,3,18,0.00
2013-10-29,85.3,76.1,68.4,74.5,70.7,66.6,96,84,66,30.06,29.97,20,5,20,0.00
2013-10-30,83.8,78.7,74.1,79.3,76.1,72.0,97,92,81,30.00,29.80,20,8,25,0.39
2013-10-31,81.7,76.2,66.0,77.0,72.1,59.2,97,88,64,29.85,29.74,21,6,23,2.41
2013-11-1,80.8,70.5,61.0,70.0,65.0,54.9,98,84,57,29.96,29.78,14,3,17,0.01
2013-11-2,73.8,65.6,59.2,55.2,49.3,41.9,75,57,33,30.22,29.96,17,8,26,0.00
2013-11-3,73.6,60.5,48.4,58.6,52.3,44.4,90,75,54,30.17,30.00,13,2,13,0.00
2013-11-4,72.3,65.7,57.7,68.4,63.4,55.8,97,92,82,30.01,29.88,7,1,10,0.00
2013-11-5,78.1,72.1,69.3,74.3,70.8,68.2,98,96,87,29.97,29.89,15,2,20,0.82
2013-11-6,82.6,68.9,55.9,76.3,66.3,50.2,98,92,72,30.22,29.92,19,5,22,0.61
2013-11-7,65.7,56.4,49.8,50.2,46.5,42.1,81,70,50,30.34,30.20,17,8,22,0.00
2013-11-8,68.4,58.2,49.5,54.9,49.7,45.1,87,74,55,30.31,30.13,8,1,10,0.00
2013-11-9,73.2,63.2,53.6,63.7,57.6,48.9,89,82,70,30.14,30.06,8,0,10,0.00
2013-11-10,70.5,64.7,59.9,61.3,57.5,52.5,90,78,61,30.22,30.11,5,0,7,0.00
2013-11-11,75.9,64.7,55.9,63.7,57.5,52.7,92,79,54,30.22,30.10,11,1,11,0.00
2013-11-12,71.4,59.9,50.9,59.4,53.5,45.0,90,80,61,30.49,30.15,23,8,27,0.00
2013-11-13,55.9,47.7,39.6,45.1,36.1,32.0,82,65,41,30.57,30.34,20,5,20,0.00
2013-11-14,67.6,53.9,42.3,55.6,47.3,36.0,94,79,62,30.34,29.99,8,1,12,0.00
2013-11-15,78.6,65.5,55.6,67.5,61.2,54.5,97,87,63,29.99,29.85,12,1,13,0.00
2013-11-16,82.6,72.0,61.2,75.2,69.6,60.1,98,92,75,29.89,29.75,17,5,19,0.00
2013-11-17,82.2,75.0,70.5,74.8,72.2,70.0,98,92,75,29.88,29.75,16,4,17,0.00
2013-11-18,82.0,72.3,65.8,75.2,67.6,55.8,99,86,61,30.04,29.88,7,1,11,0.01
2013-11-19,69.1,63.8,57.6,59.9,54.6,49.6,89,73,58,30.05,29.95,6,1,10,0.00
2013-11-20,76.8,68.6,59.2,72.3,64.4,54.5,97,87,73,29.96,29.83,13,2,15,0.07
2013-11-21,82.8,76.1,72.3,76.8,73.8,71.4,98,93,81,30.01,29.89,21,6,21,0.00
2013-11-22,73.9,47.8,41.7,73.0,46.1,40.5,97,94,91,30.25,30.00,23,13,25,0.04
2013-11-23,48.6,45.3,41.5,46.2,43.2,40.3,96,93,88,30.31,30.22,24,12,25,0.00
2013-11-24,48.0,45.1,41.5,44.6,38.8,35.6,89,79,63,30.35,30.22,14,6,16,0.09
2013-11-25,44.2,42.3,40.6,43.2,40.9,38.7,96,95,88,30.23,29.96,17,9,20,0.39
2013-11-26,48.0,43.7,41.2,41.9,40.2,38.1,95,88,77,30.26,30.00,18,9,22,0.18
2013-11-27,52.5,43.3,36.9,38.1,33.6,30.4,85,70,44,30.42,30.25,16,5,18,0.00
2013-11-28,59.9,46.1,35.4,47.3,39.5,29.3,94,79,34,30.40,30.30,4,0,5,0.00
2013-11-29,63.9,52.1,43.7,51.8,46.3,41.2,95,82,60,30.42,30.31,6,1,7,0.00
2013-11-30,72.9,57.7,45.7,59.9,52.3,43.5,95,83,61,30.33,30.16,12,2,12,0.00
2013-12-1,73.9,61.4,52.2,66.0,58.8,51.1,98,92,75,30.15,29.91,10,2,12,0.00
2013-12-2,76.8,64.3,58.6,67.6,61.8,57.7,98,92,71,29.91,29.66,13,4,15,0.01
2013-12-3,79.3,66.3,56.1,69.1,63.3,55.2,99,91,69,29.72,29.59,15,5,17,0.01
2013-12-4,78.3,71.0,66.4,72.1,69.2,65.1,99,94,80,29.77,29.65,14,7,21,0.00
2013-12-5,72.5,57.1,39.6,72.1,55.0,35.8,99,93,83,29.96,29.74,21,8,26,0.00
2013-12-6,43.7,39.2,34.9,39.2,35.9,30.9,95,88,80,30.30,29.91,23,12,25,0.01
2013-12-7,34.9,33.9,33.1,32.7,30.9,29.3,95,89,84,30.36,30.21,18,8,20,0.00
2013-12-8,47.7,41.2,34.0,44.2,38.6,32.4,96,91,82,30.19,29.99,11,3,14,0.00
2013-12-9,48.7,45.7,39.9,48.2,44.8,38.3,98,97,94,30.24,29.99,21,6,24,0.11
2013-12-10,48.6,40.9,34.0,38.1,32.7,29.8,94,74,53,30.43,30.24,21,8,28,0.00
2013-12-11,54.7,47.7,41.2,44.8,39.5,32.9,81,73,66,30.44,30.25,8,2,10,0.00
2013-12-12,52.5,46.2,40.5,42.1,39.1,36.3,88,77,61,30.51,30.28,12,4,13,0.00
2013-12-13,64.0,53.2,43.7,57.4,49.0,39.7,93,86,78,30.28,29.78,10,1,10,0.00
2013-12-14,62.6,52.7,41.2,53.6,47.5,36.5,96,83,60,30.24,29.82,23,7,24,0.00
2013-12-15,57.4,45.8,37.8,43.2,36.0,33.1,88,70,45,30.37,30.24,12,3,13,0.00
2013-12-16,63.7,47.9,34.3,45.9,38.8,31.1,91,73,40,30.32,30.18,7,0,9,0.00
2013-12-17,69.8,52.5,39.7,53.2,44.3,37.8,96,77,37,30.31,30.18,5,0,6,0.00
2013-12-18,71.1,55.2,40.6,57.6,49.6,39.6,98,83,56,30.27,30.03,14,2,16,0.01
2013-12-19,76.3,66.1,54.3,69.3,62.9,51.8,97,90,75,30.03,29.80,20,6,24,0.04
2013-12-20,76.1,71.0,66.4,72.1,69.5,65.5,99,95,85,29.83,29.66,19,8,19,0.00
2013-12-21,73.2,66.1,54.7,71.1,63.9,53.2,97,93,81,29.77,29.54,24,6,30,0.07
2013-12-22,67.1,55.6,41.5,56.7,49.2,34.5,97,80,52,30.28,29.77,14,4,18,0.01
2013-12-23,56.5,44.2,36.9,37.2,34.5,32.5,85,70,42,30.47,30.27,16,5,18,0.00
2013-12-24,60.4,45.6,33.4,42.1,36.3,30.4,90,73,37,30.50,30.23,12,1,12,0.00
2013-12-25,63.0,53.7,43.2,54.5,49.1,39.2,93,85,70,30.29,30.17,15,1,15,0.02
2013-12-26,56.8,53.2,50.7,51.4,50.0,48.6,95,89,77,30.33,30.24,11,3,14,0.04
2013-12-27,57.6,52.0,48.4,51.4,47.6,43.2,94,85,71,30.36,30.24,6,1,7,0.06
2013-12-28,60.6,50.5,45.0,45.0,41.1,35.6,86,71,42,30.25,29.99,6,1,8,0.00
2013-12-29,67.8,53.7,38.7,56.1,46.4,36.7,95,78,53,30.13,29.94,17,1,18,0.00
2013-12-30,45.9,41.4,38.8,41.5,35.5,33.6,87,79,73,30.34,30.11,19,8,22,0.00
2013-12-31,51.1,44.8,40.5,42.6,37.1,33.4,87,75,61,30.39,30.22,11,3,13,0.00
2014-1-1,62.2,53.9,45.3,58.1,51.0,41.9,97,90,81,30.22,29.96,4,0,5,0.02
2014-1-2,58.1,47.6,38.7,57.4,38.1,29.3,98,71,49,30.40,30.01,27,10,30,0.00